This is the latest recevied weather packets stored in our database for station/object IU2RPR-3. If no packets are shown the sender has not sent any weather packets the latest 10 day(s).
| Time | Temp. | Humidity | Pressure | Rain* | Wind** | Luminosity | Snow |
|---|---|---|---|---|---|---|---|
| 1788547681 | 27.78° C | 50% | 1015.9 hPa | - | - | - | - |
| 1788546480 | 28.89° C | 43% | 1015.6 hPa | - | - | - | - |
| 1788542876 | 34.44° C | 32% | 1014.9 hPa | - | - | - | - |
| 1788541675 | 36.11° C | 29% | 1015 hPa | - | - | - | - |
| 1788539272 | 35° C | 30% | 1015.1 hPa | - | - | - | - |
| 1788538071 | 37.78° C | 28% | 1015.6 hPa | - | - | - | - |
| 1788535668 | 33.89° C | 32% | 1015.7 hPa | - | - | - | - |
| 1788532064 | 33.89° C | 36% | 1016.1 hPa | - | - | - | - |
| 1788530863 | 33.33° C | 35% | 1016.3 hPa | - | - | - | - |
| 1788529661 | 35° C | 34% | 1016.3 hPa | - | - | - | - |
| 1788528458 | 33.89° C | 36% | 1016.6 hPa | - | - | - | - |
| 1788526054 | 32.22° C | 38% | 1017.2 hPa | - | - | - | - |
| 1788524844 | 31.11° C | 41% | 1017.6 hPa | - | - | - | - |
| 1788523639 | 31.67° C | 40% | 1017.6 hPa | - | - | - | - |
| 1788521228 | 30.56° C | 43% | 1018 hPa | - | - | - | - |
| 1788520022 | 29.44° C | 44% | 1018.1 hPa | - | - | - | - |
| 1788517615 | 28.33° C | 46% | 1018.3 hPa | - | - | - | - |
| 1788516409 | 27.78° C | 49% | 1018.5 hPa | - | - | - | - |
| 1788515205 | 27.78° C | 49% | 1018.7 hPa | - | - | - | - |
| 1788513995 | 27.78° C | 51% | 1018.9 hPa | - | - | - | - |
| 1788512793 | 26.67° C | 51% | 1019 hPa | - | - | - | - |
| 1788510389 | 26.11° C | 54% | 1018.9 hPa | - | - | - | - |
| 1788509187 | 25.56° C | 54% | 1018.9 hPa | - | - | - | - |
| 1788507986 | 25° C | 55% | 1018.7 hPa | - | - | - | - |
| 1788506784 | 24.44° C | 57% | 1018.7 hPa | - | - | - | - |
* Rain since midnight (hover to see other rain measurements)
** Current wind speed in m/s (hover to see current wind gust speed)